Time,TemperatureF,DewpointF,PressureIn,WindDirection,WindDirectionDegrees,WindSpeedMPH,WindSpeedGustMPH,Humidity,HourlyPrecipIn,Conditions,Clouds,dailyrainin,SolarRadiationWatts/m^2,SoftwareType,DateUTC
2013-04-20 00:12:00,70.1,65.0,29.91,NW,311,0.0,4.0,84,0.06,,,0.01,0,weatherlink.com 1.10,2013-04-20 04:12:00,
2013-04-20 00:27:00,67.9,63.0,29.92,WNW,301,0.0,7.0,85,0.08,,,0.03,0,weatherlink.com 1.10,2013-04-20 04:27:00,
2013-04-20 00:42:00,65.6,61.0,29.93,North,5,0.0,4.0,85,0.29,,,0.24,0,weatherlink.com 1.10,2013-04-20 04:42:00,
2013-04-20 00:57:00,64.7,61.0,29.94,North,5,0.0,1.0,87,0.26,,,0.26,0,weatherlink.com 1.10,2013-04-20 04:57:00,
2013-04-20 01:13:00,64.2,61.0,29.93,WSW,249,0.0,5.0,88,0.25,,,0.26,0,weatherlink.com 1.10,2013-04-20 05:13:00,
2013-04-20 01:27:00,63.2,60.0,29.94,WNW,284,0.0,6.0,88,0.23,,,0.27,0,weatherlink.com 1.10,2013-04-20 05:27:00,
2013-04-20 01:42:00,62.3,59.0,29.94,WSW,240,0.0,4.0,89,0.24,,,0.48,0,weatherlink.com 1.10,2013-04-20 05:42:00,
2013-04-20 01:57:00,61.6,59.0,29.94,NNW,346,0.0,1.0,90,0.24,,,0.50,0,weatherlink.com 1.10,2013-04-20 05:57:00,
2013-04-20 02:12:00,61.5,59.0,29.93,NNW,346,0.0,1.0,90,0.25,,,0.51,0,weatherlink.com 1.10,2013-04-20 06:12:00,
2013-04-20 02:27:00,61.5,59.0,29.92,NNW,346,0.0,0.0,91,0.23,,,0.51,0,weatherlink.com 1.10,2013-04-20 06:27:00,
2013-04-20 02:43:00,61.5,59.0,29.92,NNW,346,0.0,0.0,92,0.02,,,0.51,0,weatherlink.com 1.10,2013-04-20 06:43:00,
2013-04-20 02:58:00,61.5,59.0,29.92,NNW,346,0.0,2.0,92,0.01,,,0.51,0,weatherlink.com 1.10,2013-04-20 06:58:00,
2013-04-20 03:13:00,61.6,59.0,29.93,North,355,0.0,6.0,92,0.00,,,0.51,0,weatherlink.com 1.10,2013-04-20 07:13:00,
2013-04-20 03:28:00,60.5,58.0,29.93,NNE,18,0.0,7.0,92,0.00,,,0.51,0,weatherlink.com 1.10,2013-04-20 07:28:00,
2013-04-20 03:43:00,59.6,57.0,29.94,WNW,298,0.0,6.0,92,0.00,,,0.51,0,weatherlink.com 1.10,2013-04-20 07:43:00,
2013-04-20 03:58:00,59.2,57.0,29.94,West,259,2.0,8.0,92,0.00,,,0.51,0,weatherlink.com 1.10,2013-04-20 07:58:00,
2013-04-20 04:13:00,58.9,57.0,29.95,NNW,341,6.0,6.0,92,0.00,,,0.51,0,weatherlink.com 1.10,2013-04-20 08:13:00,
2013-04-20 04:29:00,58.7,56.0,29.95,WNW,298,0.0,4.0,92,0.00,,,0.51,0,weatherlink.com 1.10,2013-04-20 08:29:00,
2013-04-20 04:43:00,58.4,56.0,29.95,WNW,296,0.0,3.0,92,0.02,,,0.53,0,weatherlink.com 1.10,2013-04-20 08:43:00,
2013-04-20 04:59:00,58.0,56.0,29.95,West,273,1.0,4.0,92,0.06,,,0.57,0,weatherlink.com 1.10,2013-04-20 08:59:00,
2013-04-20 05:15:00,57.5,55.0,29.95,NNW,335,0.0,4.0,92,0.09,,,0.60,0,weatherlink.com 1.10,2013-04-20 09:15:00,
2013-04-20 05:30:00,57.2,55.0,29.95,WNW,297,0.0,2.0,92,0.10,,,0.61,0,weatherlink.com 1.10,2013-04-20 09:30:00,
2013-04-20 05:43:00,57.0,55.0,29.95,WNW,292,0.0,2.0,92,0.08,,,0.61,0,weatherlink.com 1.10,2013-04-20 09:43:00,
2013-04-20 06:00:00,57.0,55.0,29.98,NNW,329,0.0,9.0,92,0.05,,,0.62,0,weatherlink.com 1.10,2013-04-20 10:00:00,
2013-04-20 06:14:00,56.0,54.0,29.98,WNW,296,0.0,6.0,92,0.02,,,0.62,0,weatherlink.com 1.10,2013-04-20 10:14:00,
2013-04-20 06:29:00,54.7,53.0,29.99,NNE,15,5.0,6.0,92,0.01,,,0.62,0,weatherlink.com 1.10,2013-04-20 10:29:00,
2013-04-20 06:44:00,54.1,52.0,29.98,NE,53,0.0,4.0,92,0.02,,,0.63,0,weatherlink.com 1.10,2013-04-20 10:44:00,
2013-04-20 06:59:00,53.5,51.0,29.98,West,273,0.0,1.0,92,0.06,,,0.68,0,weatherlink.com 1.10,2013-04-20 10:59:00,
2013-04-20 07:14:00,53.3,51.0,30.00,NW,323,0.0,4.0,92,0.09,,,0.71,0,weatherlink.com 1.10,2013-04-20 11:14:00,
2013-04-20 07:29:00,53.1,51.0,30.01,North,360,0.0,4.0,92,0.09,,,0.71,5,weatherlink.com 1.10,2013-04-20 11:29:00,
2013-04-20 07:44:00,52.9,51.0,30.01,NNW,337,3.0,4.0,93,0.08,,,0.71,21,weatherlink.com 1.10,2013-04-20 11:44:00,
2013-04-20 08:00:00,52.9,51.0,30.01,NNE,13,1.0,4.0,93,0.02,,,0.71,35,weatherlink.com 1.10,2013-04-20 12:00:00,
2013-04-20 08:14:00,52.8,51.0,30.02,NNW,346,0.0,4.0,93,0.00,,,0.71,47,weatherlink.com 1.10,2013-04-20 12:14:00,
2013-04-20 08:29:00,52.6,51.0,30.04,NW,304,0.0,5.0,93,0.00,,,0.71,26,weatherlink.com 1.10,2013-04-20 12:29:00,
2013-04-20 08:44:00,52.5,51.0,30.04,NNE,32,0.0,5.0,93,0.00,,,0.71,42,weatherlink.com 1.10,2013-04-20 12:44:00,
2013-04-20 08:59:00,51.7,50.0,30.05,North,355,0.0,4.0,92,0.00,,,0.71,35,weatherlink.com 1.10,2013-04-20 12:59:00,
2013-04-20 09:16:00,51.3,49.0,30.05,NNW,339,0.0,1.0,92,0.00,,,0.71,30,weatherlink.com 1.10,2013-04-20 13:16:00,
2013-04-20 09:30:00,51.4,49.0,30.06,NW,316,0.0,4.0,92,0.00,,,0.71,14,weatherlink.com 1.10,2013-04-20 13:30:00,
2013-04-20 09:45:00,51.3,49.0,30.06,NW,315,2.0,6.0,92,0.02,,,0.73,67,weatherlink.com 1.10,2013-04-20 13:45:00,
2013-04-20 10:00:00,51.0,49.0,30.06,NNE,30,0.0,4.0,91,0.04,,,0.75,56,weatherlink.com 1.10,2013-04-20 14:00:00,
2013-04-20 10:15:00,51.0,49.0,30.07,West,261,0.0,4.0,92,0.04,,,0.75,63,weatherlink.com 1.10,2013-04-20 14:15:00,
2013-04-20 10:30:00,50.7,48.0,30.07,WSW,248,0.0,3.0,91,0.05,,,0.76,81,weatherlink.com 1.10,2013-04-20 14:30:00,
2013-04-20 10:46:00,50.8,48.0,30.07,WSW,250,0.0,2.0,91,0.03,,,0.76,123,weatherlink.com 1.10,2013-04-20 14:46:00,
2013-04-20 11:05:00,51.1,49.0,30.06,North,5,0.0,6.0,91,0.01,,,0.76,98,weatherlink.com 1.10,2013-04-20 15:05:00,
2013-04-20 11:15:00,51.3,49.0,30.07,NNE,18,0.0,4.0,92,0.02,,,0.77,93,weatherlink.com 1.10,2013-04-20 15:15:00,
2013-04-20 11:30:00,51.4,49.0,30.07,NNW,346,0.0,2.0,92,0.01,,,0.77,144,weatherlink.com 1.10,2013-04-20 15:30:00,
2013-04-20 12:00:00,51.7,50.0,30.06,NNW,336,0.0,2.0,92,0.02,,,0.78,171,weatherlink.com 1.10,2013-04-20 16:00:00,
2013-04-20 12:16:00,52.0,50.0,30.07,NW,323,0.0,6.0,92,0.01,,,0.78,156,weatherlink.com 1.10,2013-04-20 16:16:00,
2013-04-20 12:31:00,52.2,50.0,30.07,NNW,341,0.0,4.0,92,0.01,,,0.78,211,weatherlink.com 1.10,2013-04-20 16:31:00,
2013-04-20 12:46:00,52.2,50.0,30.06,ENE,74,0.0,5.0,92,0.00,,,0.78,172,weatherlink.com 1.10,2013-04-20 16:46:00,
2013-04-20 13:02:00,52.2,50.0,30.06,NE,56,0.0,3.0,91,0.00,,,0.78,193,weatherlink.com 1.10,2013-04-20 17:02:00,
2013-04-20 13:17:00,52.9,50.0,30.06,NE,52,2.0,2.0,90,0.00,,,0.78,174,weatherlink.com 1.10,2013-04-20 17:17:00,
2013-04-20 13:32:00,52.9,50.0,30.06,North,355,0.0,3.0,89,0.00,,,0.78,102,weatherlink.com 1.10,2013-04-20 17:32:00,
2013-04-20 13:46:00,53.1,50.0,30.06,North,5,0.0,2.0,88,0.00,,,0.78,72,weatherlink.com 1.10,2013-04-20 17:46:00,
2013-04-20 14:02:00,53.5,50.0,30.05,North,5,0.0,1.0,88,0.00,,,0.78,81,weatherlink.com 1.10,2013-04-20 18:02:00,
2013-04-20 14:16:00,53.8,50.0,30.06,North,5,0.0,1.0,88,0.01,,,0.79,125,weatherlink.com 1.10,2013-04-20 18:16:00,
2013-04-20 14:31:00,54.1,51.0,30.05,North,360,0.0,2.0,88,0.01,,,0.79,125,weatherlink.com 1.10,2013-04-20 18:31:00,
2013-04-20 14:46:00,54.2,51.0,30.04,East,80,0.0,4.0,88,0.01,,,0.79,128,weatherlink.com 1.10,2013-04-20 18:46:00,
2013-04-20 15:04:00,54.4,51.0,30.06,ENE,74,0.0,2.0,88,0.00,,,0.79,76,weatherlink.com 1.10,2013-04-20 19:04:00,
2013-04-20 15:19:00,54.4,51.0,30.05,ENE,69,0.0,2.0,87,0.00,,,0.79,109,weatherlink.com 1.10,2013-04-20 19:19:00,
2013-04-20 15:33:00,54.5,50.0,30.04,NNW,337,0.0,5.0,86,0.00,,,0.79,116,weatherlink.com 1.10,2013-04-20 19:33:00,
2013-04-20 15:49:00,54.8,51.0,30.06,NNW,336,0.0,1.0,86,0.00,,,0.79,139,weatherlink.com 1.10,2013-04-20 19:49:00,
2013-04-20 16:02:00,55.1,51.0,30.05,North,355,2.0,3.0,86,0.00,,,0.79,181,weatherlink.com 1.10,2013-04-20 20:02:00,
2013-04-20 16:17:00,55.4,51.0,30.04,North,5,0.0,3.0,84,0.00,,,0.79,346,weatherlink.com 1.10,2013-04-20 20:17:00,
2013-04-20 16:34:00,56.2,51.0,30.04,ENE,67,0.0,6.0,83,0.00,,,0.79,443,weatherlink.com 1.10,2013-04-20 20:34:00,
2013-04-20 16:49:00,56.7,51.0,30.04,North,360,0.0,5.0,81,0.00,,,0.79,218,weatherlink.com 1.10,2013-04-20 20:49:00,
2013-04-20 17:04:00,57.5,52.0,30.04,North,5,0.0,5.0,81,0.00,,,0.79,323,weatherlink.com 1.10,2013-04-20 21:04:00,
2013-04-20 17:20:00,58.4,52.0,30.04,NNW,341,0.0,3.0,78,0.00,,,0.79,429,weatherlink.com 1.10,2013-04-20 21:20:00,
2013-04-20 17:35:00,58.6,51.0,30.04,NE,56,0.0,7.0,76,0.00,,,0.79,98,weatherlink.com 1.10,2013-04-20 21:35:00,
2013-04-20 17:48:00,58.7,51.0,30.04,ENE,67,1.0,4.0,75,0.00,,,0.79,135,weatherlink.com 1.10,2013-04-20 21:48:00,
2013-04-20 18:03:00,58.9,51.0,30.03,NE,53,3.0,3.0,76,0.00,,,0.79,125,weatherlink.com 1.10,2013-04-20 22:03:00,
2013-04-20 18:18:00,58.9,51.0,30.03,NNE,28,0.0,6.0,75,0.00,,,0.79,93,weatherlink.com 1.10,2013-04-20 22:18:00,
2013-04-20 18:33:00,59.2,51.0,30.03,NE,41,0.0,3.0,75,0.00,,,0.79,134,weatherlink.com 1.10,2013-04-20 22:33:00,
2013-04-20 18:48:00,59.6,52.0,30.03,NNE,18,0.0,2.0,75,0.00,,,0.79,183,weatherlink.com 1.10,2013-04-20 22:48:00,
2013-04-20 19:03:00,60.1,52.0,30.03,North,5,1.0,4.0,74,0.00,,,0.79,132,weatherlink.com 1.10,2013-04-20 23:03:00,
2013-04-20 19:18:00,60.2,52.0,30.04,NNE,32,0.0,3.0,74,0.00,,,0.79,56,weatherlink.com 1.10,2013-04-20 23:18:00,
2013-04-20 19:33:00,60.1,52.0,30.05,ENE,75,0.0,3.0,74,0.00,,,0.79,35,weatherlink.com 1.10,2013-04-20 23:33:00,
2013-04-20 19:48:00,59.8,52.0,30.05,East,79,0.0,3.0,75,0.00,,,0.79,11,weatherlink.com 1.10,2013-04-20 23:48:00,
2013-04-20 20:04:00,59.5,52.0,30.06,East,79,0.0,1.0,76,0.00,,,0.79,0,weatherlink.com 1.10,2013-04-21 00:04:00,
2013-04-20 20:19:00,59.2,52.0,30.06,East,79,0.0,1.0,77,0.00,,,0.79,0,weatherlink.com 1.10,2013-04-21 00:19:00,
2013-04-20 20:34:00,58.7,52.0,30.07,East,79,0.0,0.0,77,0.00,,,0.79,0,weatherlink.com 1.10,2013-04-21 00:34:00,
2013-04-20 20:49:00,58.3,51.0,30.07,ENE,78,0.0,1.0,78,0.00,,,0.79,0,weatherlink.com 1.10,2013-04-21 00:49:00,
2013-04-20 21:04:00,58.0,52.0,30.07,East,79,0.0,0.0,79,0.00,,,0.79,0,weatherlink.com 1.10,2013-04-21 01:04:00,
2013-04-20 21:19:00,57.5,51.0,30.08,ENE,67,0.0,3.0,80,0.00,,,0.79,0,weatherlink.com 1.10,2013-04-21 01:19:00,
2013-04-20 21:34:00,57.0,51.0,30.09,ENE,67,0.0,0.0,81,0.00,,,0.79,0,weatherlink.com 1.10,2013-04-21 01:34:00,
2013-04-20 21:49:00,56.6,51.0,30.09,ENE,67,0.0,0.0,81,0.00,,,0.79,0,weatherlink.com 1.10,2013-04-21 01:49:00,
2013-04-20 22:04:00,56.2,50.0,30.09,ENE,67,0.0,0.0,81,0.00,,,0.79,0,weatherlink.com 1.10,2013-04-21 02:04:00,
2013-04-20 22:19:00,55.7,50.0,30.10,ENE,67,0.0,0.0,82,0.00,,,0.79,0,weatherlink.com 1.10,2013-04-21 02:19:00,
2013-04-20 22:34:00,55.6,51.0,30.10,ENE,67,0.0,0.0,83,0.00,,,0.79,0,weatherlink.com 1.10,2013-04-21 02:34:00,
2013-04-20 22:49:00,55.4,51.0,30.11,ENE,67,0.0,1.0,84,0.00,,,0.79,0,weatherlink.com 1.10,2013-04-21 02:49:00,
2013-04-20 23:04:00,55.3,51.0,30.11,ENE,67,0.0,0.0,84,0.00,,,0.79,0,weatherlink.com 1.10,2013-04-21 03:04:00,
2013-04-20 23:20:00,55.0,51.0,30.12,ENE,67,0.0,0.0,85,0.00,,,0.79,0,weatherlink.com 1.10,2013-04-21 03:20:00,
2013-04-20 23:35:00,54.8,50.0,30.12,ENE,67,0.0,2.0,85,0.00,,,0.79,0,weatherlink.com 1.10,2013-04-21 03:35:00,
2013-04-20 23:51:00,54.8,50.0,30.12,ENE,67,0.0,0.0,85,0.00,,,0.79,0,weatherlink.com 1.10,2013-04-21 03:51:00,